Time,TemperatureF,DewpointF,PressureIn,WindDirection,WindDirectionDegrees,WindSpeedMPH,WindSpeedGustMPH,Humidity,HourlyPrecipIn,Conditions,Clouds,dailyrainin,SolarRadiationWatts/m^2,SoftwareType,DateUTC
2013-03-10 00:12:00,43.6,40.0,30.33,South,182,1.0,2.0,86,0.00,,,0.00,0,weatherlink.com 1.10,2013-03-10 08:12:00,
2013-03-10 00:27:00,43.7,40.0,30.34,South,182,1.0,1.0,86,0.00,,,0.00,0,weatherlink.com 1.10,2013-03-10 08:27:00,
2013-03-10 00:42:00,43.2,39.0,30.34,South,182,2.0,3.0,85,0.00,,,0.00,0,weatherlink.com 1.10,2013-03-10 08:42:00,
2013-03-10 00:57:00,43.0,39.0,30.34,South,182,0.0,2.0,85,0.00,,,0.00,0,weatherlink.com 1.10,2013-03-10 08:57:00,
2013-03-10 01:12:00,43.3,39.0,30.33,South,182,0.0,1.0,86,0.00,,,0.00,0,weatherlink.com 1.10,2013-03-10 09:12:00,
2013-03-10 01:27:00,43.0,39.0,30.33,South,182,0.0,1.0,86,0.00,,,0.00,0,weatherlink.com 1.10,2013-03-10 09:27:00,
2013-03-10 01:42:00,42.2,39.0,30.34,South,182,0.0,2.0,87,0.00,,,0.00,0,weatherlink.com 1.10,2013-03-10 09:42:00,
2013-03-10 03:12:00,41.8,39.0,30.33,South,182,0.0,3.0,88,0.00,,,0.00,0,weatherlink.com 1.10,2013-03-10 10:12:00,
2013-03-10 03:27:00,41.8,38.0,30.33,South,182,0.0,3.0,87,0.00,,,0.00,0,weatherlink.com 1.10,2013-03-10 10:27:00,
2013-03-10 03:42:00,41.2,38.0,30.34,South,182,0.0,2.0,87,0.00,,,0.00,0,weatherlink.com 1.10,2013-03-10 10:42:00,
2013-03-10 03:57:00,41.1,38.0,30.33,South,182,0.0,1.0,89,0.00,,,0.00,0,weatherlink.com 1.10,2013-03-10 10:57:00,
2013-03-10 04:12:00,41.0,38.0,30.33,South,182,0.0,2.0,88,0.00,,,0.00,0,weatherlink.com 1.10,2013-03-10 11:12:00,
2013-03-10 04:27:00,40.1,37.0,30.32,South,182,2.0,2.0,88,0.00,,,0.00,0,weatherlink.com 1.10,2013-03-10 11:27:00,
2013-03-10 04:42:00,40.7,38.0,30.33,South,182,1.0,2.0,89,0.00,,,0.00,0,weatherlink.com 1.10,2013-03-10 11:42:00,
2013-03-10 04:57:00,40.0,37.0,30.33,South,182,0.0,0.0,89,0.00,,,0.00,0,weatherlink.com 1.10,2013-03-10 11:57:00,
2013-03-10 05:12:00,39.4,37.0,30.33,South,182,0.0,2.0,89,0.00,,,0.00,0,weatherlink.com 1.10,2013-03-10 12:12:00,
2013-03-10 05:27:00,40.2,37.0,30.34,South,182,0.0,0.0,89,0.00,,,0.00,0,weatherlink.com 1.10,2013-03-10 12:27:00,
2013-03-10 05:42:00,38.9,36.0,30.34,South,182,0.0,1.0,90,0.00,,,0.00,0,weatherlink.com 1.10,2013-03-10 12:42:00,
2013-03-10 05:57:00,38.5,36.0,30.34,South,182,0.0,2.0,90,0.00,,,0.00,0,weatherlink.com 1.10,2013-03-10 12:57:00,
2013-03-10 06:12:00,38.9,36.0,30.34,South,182,0.0,0.0,90,0.00,,,0.00,0,weatherlink.com 1.10,2013-03-10 13:12:00,
2013-03-10 06:27:00,38.2,36.0,30.34,South,182,0.0,1.0,91,0.00,,,0.00,0,weatherlink.com 1.10,2013-03-10 13:27:00,
2013-03-10 06:42:00,38.2,36.0,30.35,South,182,0.0,2.0,91,0.00,,,0.00,0,weatherlink.com 1.10,2013-03-10 13:42:00,
2013-03-10 06:57:00,37.8,36.0,30.35,South,182,0.0,1.0,91,0.00,,,0.00,0,weatherlink.com 1.10,2013-03-10 13:57:00,
2013-03-10 07:12:00,38.0,36.0,30.35,South,182,0.0,1.0,91,0.00,,,0.00,0,weatherlink.com 1.10,2013-03-10 14:12:00,
2013-03-10 07:27:00,37.4,35.0,30.36,South,182,0.0,1.0,91,0.00,,,0.00,7,weatherlink.com 1.10,2013-03-10 14:27:00,
2013-03-10 07:42:00,38.3,36.0,30.36,South,182,0.0,3.0,92,0.00,,,0.00,16,weatherlink.com 1.10,2013-03-10 14:42:00,
2013-03-10 07:57:00,39.3,37.0,30.36,South,182,0.0,2.0,91,0.00,,,0.00,83,weatherlink.com 1.10,2013-03-10 14:57:00,
2013-03-10 08:12:00,39.7,37.0,30.37,South,182,0.0,2.0,91,0.00,,,0.00,139,weatherlink.com 1.10,2013-03-10 15:12:00,
2013-03-10 08:28:00,41.4,38.0,30.37,South,182,0.0,1.0,88,0.00,,,0.00,197,weatherlink.com 1.10,2013-03-10 15:28:00,
2013-03-10 08:43:00,42.7,39.0,30.38,South,182,0.0,1.0,85,0.00,,,0.00,250,weatherlink.com 1.10,2013-03-10 15:43:00,
2013-03-10 08:58:00,44.6,40.0,30.37,South,182,0.0,3.0,84,0.00,,,0.00,306,weatherlink.com 1.10,2013-03-10 15:58:00,
2013-03-10 09:13:00,46.5,40.0,30.37,South,182,0.0,1.0,78,0.00,,,0.00,380,weatherlink.com 1.10,2013-03-10 16:13:00,
2013-03-10 09:28:00,50.3,39.0,30.37,NE,55,1.0,4.0,65,0.00,,,0.00,445,weatherlink.com 1.10,2013-03-10 16:28:00,
2013-03-10 09:43:00,53.8,36.0,30.37,NNW,347,1.0,10.0,52,0.00,,,0.00,496,weatherlink.com 1.10,2013-03-10 16:43:00,
2013-03-10 09:58:00,55.6,34.0,30.37,NNW,344,8.0,11.0,45,0.00,,,0.00,527,weatherlink.com 1.10,2013-03-10 16:58:00,
2013-03-10 10:13:00,56.2,35.0,30.37,North,349,9.0,14.0,45,0.00,,,0.00,584,weatherlink.com 1.10,2013-03-10 17:13:00,
2013-03-10 10:28:00,56.9,34.0,30.36,NNW,342,8.0,14.0,42,0.00,,,0.00,617,weatherlink.com 1.10,2013-03-10 17:28:00,
2013-03-10 10:43:00,58.1,34.0,30.36,NNE,22,6.0,13.0,40,0.00,,,0.00,673,weatherlink.com 1.10,2013-03-10 17:43:00,
2013-03-10 10:58:00,59.6,34.0,30.36,North,350,3.0,14.0,38,0.00,,,0.00,707,weatherlink.com 1.10,2013-03-10 17:58:00,
2013-03-10 11:13:00,60.3,34.0,30.36,NNW,344,4.0,11.0,37,0.00,,,0.00,766,weatherlink.com 1.10,2013-03-10 18:13:00,
2013-03-10 11:28:00,61.0,32.0,30.35,NW,324,8.0,13.0,34,0.00,,,0.00,786,weatherlink.com 1.10,2013-03-10 18:28:00,
2013-03-10 11:43:00,61.2,34.0,30.36,NNW,336,5.0,11.0,36,0.00,,,0.00,766,weatherlink.com 1.10,2013-03-10 18:43:00,
2013-03-10 11:58:00,61.5,33.0,30.35,NNW,333,10.0,12.0,34,0.00,,,0.00,318,weatherlink.com 1.10,2013-03-10 18:58:00,
2013-03-10 12:13:00,61.7,33.0,30.35,NW,313,3.0,11.0,34,0.00,,,0.00,823,weatherlink.com 1.10,2013-03-10 19:13:00,
2013-03-10 12:28:00,63.6,31.0,30.35,North,350,7.0,11.0,30,0.00,,,0.00,737,weatherlink.com 1.10,2013-03-10 19:28:00,
2013-03-10 12:44:00,64.8,30.0,30.34,NNW,335,2.0,9.0,27,0.00,,,0.00,817,weatherlink.com 1.10,2013-03-10 19:44:00,
2013-03-10 12:59:00,66.4,28.0,30.33,NW,315,1.0,10.0,24,0.00,,,0.00,805,weatherlink.com 1.10,2013-03-10 19:59:00,
2013-03-10 13:14:00,66.9,30.0,30.33,SSW,205,2.0,6.0,25,0.00,,,0.00,805,weatherlink.com 1.10,2013-03-10 20:14:00,
2013-03-10 13:29:00,67.6,30.0,30.33,North,360,3.0,4.0,25,0.00,,,0.00,438,weatherlink.com 1.10,2013-03-10 20:29:00,
2013-03-10 13:44:00,68.1,30.0,30.32,NW,323,4.0,8.0,24,0.00,,,0.00,802,weatherlink.com 1.10,2013-03-10 20:44:00,
2013-03-10 13:59:00,68.3,29.0,30.31,North,5,3.0,7.0,23,0.00,,,0.00,779,weatherlink.com 1.10,2013-03-10 20:59:00,
2013-03-10 14:14:00,68.4,30.0,30.30,WNW,301,3.0,8.0,24,0.00,,,0.00,789,weatherlink.com 1.10,2013-03-10 21:14:00,
2013-03-10 14:29:00,69.5,31.0,30.30,WNW,301,3.0,9.0,24,0.00,,,0.00,735,weatherlink.com 1.10,2013-03-10 21:29:00,
2013-03-10 14:44:00,69.0,31.0,30.30,WNW,288,5.0,12.0,24,0.00,,,0.00,710,weatherlink.com 1.10,2013-03-10 21:44:00,
2013-03-10 14:59:00,69.7,30.0,30.29,WNW,292,8.0,10.0,23,0.00,,,0.00,671,weatherlink.com 1.10,2013-03-10 21:59:00,
2013-03-10 15:14:00,69.6,30.0,30.29,NE,56,6.0,11.0,23,0.00,,,0.00,636,weatherlink.com 1.10,2013-03-10 22:14:00,
2013-03-10 15:29:00,69.5,32.0,30.30,NW,321,5.0,13.0,25,0.00,,,0.00,596,weatherlink.com 1.10,2013-03-10 22:29:00,
2013-03-10 15:44:00,69.8,30.0,30.30,North,355,5.0,10.0,23,0.00,,,0.00,557,weatherlink.com 1.10,2013-03-10 22:44:00,
2013-03-10 15:59:00,70.3,30.0,30.29,NNW,331,3.0,8.0,22,0.00,,,0.00,519,weatherlink.com 1.10,2013-03-10 22:59:00,
2013-03-10 16:14:00,69.9,32.0,30.29,NNE,32,5.0,9.0,25,0.00,,,0.00,469,weatherlink.com 1.10,2013-03-10 23:14:00,
2013-03-10 16:29:00,69.6,33.0,30.29,NNW,329,6.0,8.0,26,0.00,,,0.00,410,weatherlink.com 1.10,2013-03-10 23:29:00,
2013-03-10 16:44:00,69.7,32.0,30.28,NNW,329,2.0,9.0,25,0.00,,,0.00,367,weatherlink.com 1.10,2013-03-10 23:44:00,
2013-03-10 16:59:00,69.2,41.0,30.28,WNW,298,5.0,9.0,36,0.00,,,0.00,323,weatherlink.com 1.10,2013-03-10 23:59:00,
2013-03-10 17:14:00,68.7,41.0,30.27,SW,223,3.0,8.0,36,0.00,,,0.00,260,weatherlink.com 1.10,2013-03-11 00:14:00,
2013-03-10 17:29:00,68.5,41.0,30.27,West,267,1.0,6.0,37,0.00,,,0.00,199,weatherlink.com 1.10,2013-03-11 00:29:00,
2013-03-10 17:44:00,68.1,43.0,30.27,West,279,4.0,9.0,41,0.00,,,0.00,141,weatherlink.com 1.10,2013-03-11 00:44:00,
2013-03-10 17:59:00,67.5,44.0,30.27,NW,304,2.0,7.0,43,0.00,,,0.00,72,weatherlink.com 1.10,2013-03-11 00:59:00,
2013-03-10 18:29:00,64.8,40.0,30.27,West,261,5.0,11.0,41,0.00,,,0.00,26,weatherlink.com 1.10,2013-03-11 01:29:00,
2013-03-10 18:44:00,63.5,39.0,30.27,NW,312,6.0,9.0,40,0.00,,,0.00,16,weatherlink.com 1.10,2013-03-11 01:44:00,
2013-03-10 18:59:00,62.1,38.0,30.27,WNW,283,3.0,8.0,41,0.00,,,0.00,9,weatherlink.com 1.10,2013-03-11 01:59:00,
2013-03-10 19:14:00,61.2,37.0,30.27,WSW,250,1.0,8.0,41,0.00,,,0.00,0,weatherlink.com 1.10,2013-03-11 02:14:00,
2013-03-10 19:29:00,60.0,37.0,30.27,West,268,3.0,4.0,43,0.00,,,0.00,0,weatherlink.com 1.10,2013-03-11 02:29:00,
2013-03-10 19:44:00,59.4,37.0,30.28,West,263,3.0,5.0,44,0.00,,,0.00,0,weatherlink.com 1.10,2013-03-11 02:44:00,
2013-03-10 19:59:00,58.5,38.0,30.28,WSW,247,1.0,4.0,47,0.00,,,0.00,0,weatherlink.com 1.10,2013-03-11 02:59:00,
2013-03-10 20:14:00,56.8,38.0,30.28,WSW,247,3.0,3.0,50,0.00,,,0.00,0,weatherlink.com 1.10,2013-03-11 03:14:00,
2013-03-10 20:29:00,56.4,40.0,30.29,WSW,247,0.0,1.0,54,0.00,,,0.00,0,weatherlink.com 1.10,2013-03-11 03:29:00,
2013-03-10 20:44:00,55.5,40.0,30.29,WSW,247,0.0,0.0,56,0.00,,,0.00,0,weatherlink.com 1.10,2013-03-11 03:44:00,
2013-03-10 20:59:00,54.2,39.0,30.29,WSW,247,0.0,1.0,58,0.00,,,0.00,0,weatherlink.com 1.10,2013-03-11 03:59:00,
2013-03-10 21:14:00,54.0,40.0,30.28,WSW,247,0.0,2.0,59,0.00,,,0.00,0,weatherlink.com 1.10,2013-03-11 04:14:00,
2013-03-10 21:29:00,53.8,40.0,30.29,WSW,247,0.0,1.0,59,0.00,,,0.00,0,weatherlink.com 1.10,2013-03-11 04:29:00,
2013-03-10 21:44:00,53.3,39.0,30.29,WSW,247,0.0,1.0,59,0.00,,,0.00,0,weatherlink.com 1.10,2013-03-11 04:44:00,
2013-03-10 21:59:00,51.9,38.0,30.29,WSW,247,1.0,3.0,60,0.00,,,0.00,0,weatherlink.com 1.10,2013-03-11 04:59:00,
2013-03-10 22:14:00,51.6,38.0,30.29,WSW,247,2.0,4.0,61,0.00,,,0.00,0,weatherlink.com 1.10,2013-03-11 05:14:00,
2013-03-10 22:29:00,51.2,38.0,30.29,WSW,247,1.0,2.0,62,0.00,,,0.00,0,weatherlink.com 1.10,2013-03-11 05:29:00,
2013-03-10 22:44:00,50.6,38.0,30.29,WSW,247,0.0,0.0,63,0.00,,,0.00,0,weatherlink.com 1.10,2013-03-11 05:44:00,
2013-03-10 22:59:00,49.4,38.0,30.29,WSW,247,0.0,0.0,66,0.00,,,0.00,0,weatherlink.com 1.10,2013-03-11 05:59:00,
2013-03-10 23:14:00,48.8,38.0,30.29,WSW,247,0.0,1.0,67,0.00,,,0.00,0,weatherlink.com 1.10,2013-03-11 06:14:00,
2013-03-10 23:29:00,48.4,38.0,30.29,WSW,247,0.0,1.0,68,0.00,,,0.00,0,weatherlink.com 1.10,2013-03-11 06:29:00,
2013-03-10 23:44:00,48.0,39.0,30.29,WSW,247,1.0,2.0,71,0.00,,,0.00,0,weatherlink.com 1.10,2013-03-11 06:44:00,
2013-03-10 23:59:00,47.6,39.0,30.29,WSW,247,0.0,2.0,72,0.00,,,0.00,0,weatherlink.com 1.10,2013-03-11 06:59:00,